Thursday, October 23, 2014
05:12 UTC
  |  Log In   |  Register Free
Airport Search:

New Richmond Regional Airport
(KRNH)

New Richmond Regional Airport Diagram
No Airport Diagram Available

FAA data valid effective September 18, 2014 - November 13, 2014 (unless otherwise noted).

 
 
 
 
 
 
 
 
 
 
 
 
 
 

Current Aviation Weather for New Richmond Regional Airport (KRNH)

The most recent METAR observation for KRNH was updated at: 0416
METAR Summary (Translated METAR)
KRNH
230355Z AUTO 15010KT 10SM SCT080 SCT090 BKN120 12/03 A3007 RMK AO2 T01200032
KOEO
230355Z AUTO 15009KT 10SM CLR 13/04 A3009 RMK AO2 T01250040
(11.6 nm NW from KRNH)
KSTP
230353Z AUTO 14015G20KT 10SM CLR 12/05 A3005 RMK AO2 SLP175 T01220050
(25.5 nm SW from KRNH)
TAF Summary (Translated TAF)
KRNH
222115Z 2221/2318 15012G20KT P6SM VCSH SCT060 BKN080 FM230200 16011KT P6SM SCT040 BKN060 FM230700 17008KT 5SM -SHRA BR BKN020 OVC040 FM231000 18004KT 4SM BR OVC020 FM231600 23005KT P6SM FEW020
  Airport Weather Conditions for KRNH

 Current Weather at RNH
54° F
Mostly Cloudy
Southeast winds at 11.5 mph
RNH NOAA Radar

Pressure: 30.07 in
Humidity: 55%
Wind: Southeast at 11.5 MPH (10 KT)
Dew Point: 37.8°F
Visibility: 10.00 mi


Airport Weather Forecast for KRNH

Translated METAR and TAF for KRNH
Translated METAR for KRNH (0507 UTC 23 October 2014)
found at http://aviationweather.gov/adds/metars/
 
METAR text: KRNH 230455Z AUTO 16007KT 10SM SCT120 11/04 A3005 RMK AO2 T01130035
Conditions at: KRNH (NEW RICHMOND MUN, WI, US) observed 0455 UTC 23 October 2014
Temperature: 11.3°C (52°F)
Dewpoint: 3.5°C (38°F) [RH = 59%]
Pressure (altimeter): 30.05 inches Hg (1017.7 mb)
Winds: from the SSE (160 degrees) at 8 MPH (7 knots; 3.6 m/s)
Visibility: 10 or more miles (16+ km)
Ceiling: at least 12,000 feet AGL
Clouds: scattered clouds at 12000 feet AGL
Weather: automated observation with no human augmentation;
there may or may not be significant weather present at this time
Translated TAF for KRNH
Forecast for: KRNH (NEW RICHMOND MUN, WI, US)
TAF Text: KRNH 222336Z 2300/2324 16011KT P6SM SCT060 BKN080
Forecast period: 0000 to 0600 UTC 23 October 2014
Forecast type: FROM: standard forecast or significant change
Winds: from the SSE (160 degrees) at 13 MPH (11 knots; 5.7 m/s)
Visibility: 6 or more miles (10+ km)
Ceiling: 8000 feet AGL
Clouds: scattered clouds at 6000 feet AGL
broken clouds at 8000 feet AGL
Weather: no significant weather forecast for this period
TAF Text: FM230600 17008KT 6SM -SHRA BR SCT020 OVC040
Forecast period: 0600 to 1000 UTC 23 October 2014
Forecast type: FROM: standard forecast or significant change
Winds: from the S (170 degrees) at 9 MPH (8 knots; 4.2 m/s)
Visibility: 6 miles (10 km)
Ceiling: 4000 feet AGL
Clouds: scattered clouds at 2000 feet AGL
overcast cloud deck at 4000 feet AGL
Weather: -SHRA BR  (light rain showers, mist)
TAF Text: TEMPO 2306/2310 4SM SHRA BR OVC020
Forecast period: 0600 to 1000 UTC 23 October 2014
Forecast type: TEMPORARY: The following changes expected for less than half the time period
Visibility: 4 miles (6 km)
Ceiling: 2000 feet AGL
Clouds: overcast cloud deck at 2000 feet AGL
Weather: SHRA BR  (rain showers, mist)
TAF Text: FM231000 18004KT 4SM BR OVC015
Forecast period: 1000 to 1600 UTC 23 October 2014
Forecast type: FROM: standard forecast or significant change
Winds: from the S (180 degrees) at 5 MPH (4 knots; 2.1 m/s)
Visibility: 4 miles (6 km)
Ceiling: 1500 feet AGL
Clouds: overcast cloud deck at 1500 feet AGL
Weather: BR  (mist)
TAF Text: FM231600 23005KT P6SM SCT030
Forecast period: 1600 UTC 23 October 2014 to 0000 UTC 24 October 2014
Forecast type: FROM: standard forecast or significant change
Winds: from the SW (230 degrees) at 6 MPH (5 knots; 2.6 m/s)
Visibility: 6 or more miles (10+ km)
Clouds: scattered clouds at 3000 feet AGL
Weather: no significant weather forecast for this period

Find All Airport Services Find A Hotel Find A Rental Car Find A Golf Course Find A Restaurant $100 Hamburger



FBO's on the Field
FBO Company Facility Photos Services Transportation Aviation Fuel Prices: Prices include tax
Catering Weather Repair Courtesy Rental Type 100LL JetA JetA+ MOGAS 8087
 
Griggs Aviation

This FBO has not yet been rated
FS:Independent
Last Updated: Oct-21
Login to update fuel prices
SS:
Contact Griggs AviationMore FBO Information
 
Add another FBO Facility Photos Catering Weather Repair Courtesy Rental Type 100LL JetA JetA+ MOGAS 8087
Services Transportation Aviation Fuel Prices: Prices include tax


model-print
model-print
model-print
model-print